Time;durP1;ratioP1;P1;durP2;ratioP2;P2;SDS_P1;SDS_P2;PMS_P1;PMS_P2;Temp;Humidity;BMP_temperature;BMP_pressure;BME280_temperature;BME280_humidity;BME280_pressure;Samples;Min_cycle;Max_cycle;Signal;HPM_P1;HPM_P2
2022/12/13 00:05:31;;;;;;;1.60;0.80;;;;;;;21.04;35.62;102365.25;20744940;28;20119;-62
2022/12/13 00:15:35;;;;;;;0.82;0.80;;;;;;;21.02;35.75;102373.00;20743871;28;20054;-62
2022/12/13 00:25:37;;;;;;;0.82;0.60;;;;;;;21.00;35.58;102375.19;20743037;28;20092;-62
2022/12/13 00:35:41;;;;;;;0.60;0.60;;;;;;;20.87;35.80;102364.34;20755011;28;20034;-60
2022/12/13 00:45:45;;;;;;;1.00;0.90;;;;;;;20.93;35.72;102374.47;20757606;28;20045;-61
2022/12/13 00:55:49;;;;;;;0.80;0.80;;;;;;;20.95;35.71;102389.84;20756736;28;20050;-61
2022/12/13 01:05:50;;;;;;;0.95;0.88;;;;;;;20.95;35.72;102394.56;20756189;28;20148;-63
2022/12/13 01:15:52;;;;;;;0.90;0.70;;;;;;;20.92;35.41;102400.63;20754942;28;20045;-63
2022/12/13 01:25:54;;;;;;;0.80;0.80;;;;;;;20.90;35.34;102403.66;20753609;28;20116;-60
2022/12/13 01:35:55;;;;;;;1.02;0.93;;;;;;;20.78;35.50;102389.75;20754150;28;20042;-62
2022/12/13 01:45:57;;;;;;;1.33;0.90;;;;;;;20.82;35.27;102398.47;20753267;28;20042;-62
2022/12/13 01:56:16;;;;;;;0.77;0.77;;;;;;;20.75;35.51;102390.22;20752941;28;20472;-61
2022/12/13 02:06:40;;;;;;;1.08;0.88;;;;;;;20.76;35.68;102405.84;20752632;28;20034;-62
2022/12/13 02:16:54;;;;;;;1.05;0.80;;;;;;;20.84;35.54;102420.47;20750970;28;20100;-62
2022/12/13 02:27:16;;;;;;;0.90;0.75;;;;;;;20.88;35.50;102424.44;20774128;28;20053;-61
2022/12/13 02:37:25;;;;;;;1.10;0.77;;;;;;;20.90;35.15;102433.41;20794675;28;20064;-61
2022/12/13 02:47:27;;;;;;;;;;;;;;;20.91;35.54;102435.09;20781692;28;20049;-61
2022/12/13 02:57:36;;;;;;;2.78;1.17;;;;;;;20.94;35.58;102431.84;20821076;28;19921;-61
2022/12/13 03:08:08;;;;;;;1.13;1.00;;;;;;;20.91;35.68;102444.28;20822510;28;20049;-62
2022/12/13 03:18:16;;;;;;;1.13;0.90;;;;;;;20.93;35.54;102449.59;20809785;28;20046;-62
2022/12/13 03:28:18;;;;;;;1.10;0.80;;;;;;;20.94;35.52;102448.53;20814892;28;20049;-63
2022/12/13 03:38:19;;;;;;;0.88;0.80;;;;;;;20.94;35.41;102454.09;20820167;28;20392;-62
2022/12/13 03:48:21;;;;;;;1.15;1.02;;;;;;;20.92;35.38;102440.41;20821588;28;20049;-61
2022/12/13 03:58:23;;;;;;;1.02;0.93;;;;;;;20.88;35.51;102444.78;20807992;28;20096;-60
2022/12/13 04:08:24;;;;;;;5.15;1.30;;;;;;;20.89;35.30;102456.75;20786974;28;20467;-60
2022/12/13 04:18:26;;;;;;;1.15;0.98;;;;;;;20.88;35.72;102435.59;20815189;28;20115;-60
2022/12/13 04:28:28;;;;;;;0.98;0.88;;;;;;;20.94;35.62;102452.16;20839309;28;20057;-60
2022/12/13 04:38:29;;;;;;;1.00;0.70;;;;;;;20.88;35.46;102438.38;20808761;28;20091;-60
2022/12/13 04:48:31;;;;;;;1.27;0.80;;;;;;;20.94;35.63;102451.31;20838045;28;20046;-60
2022/12/13 04:58:32;;;;;;;1.30;1.00;;;;;;;20.92;35.13;102451.53;20836657;28;20045;-60
2022/12/13 05:08:36;;;;;;;1.00;0.90;;;;;;;20.92;35.31;102445.13;20836827;28;20049;-60
2022/12/13 05:18:40;;;;;;;1.70;1.10;;;;;;;20.90;35.40;102441.75;20805583;28;20062;-60
2022/12/13 05:28:42;;;;;;;1.35;1.25;;;;;;;20.90;35.16;102461.25;20792717;28;20046;-60
2022/12/13 05:38:46;;;;;;;1.65;0.85;;;;;;;20.68;35.48;102441.53;20810384;28;20041;-60
2022/12/13 05:48:47;;;;;;;1.27;1.17;;;;;;;20.69;35.49;102441.28;20820073;28;20048;-60
2022/12/13 05:58:49;;;;;;;4.35;1.17;;;;;;;20.80;35.48;102465.50;20908259;28;20037;-60
2022/12/13 06:08:50;;;;;;;1.33;0.95;;;;;;;20.63;35.13;102445.06;20853173;28;20195;-59
2022/12/13 06:18:52;;;;;;;1.13;0.90;;;;;;;20.70;35.16;102468.00;20831605;28;20045;-60
2022/12/13 06:28:53;;;;;;;1.30;1.10;;;;;;;20.68;35.10;102478.56;20831772;28;20041;-61
2022/12/13 06:39:01;;;;;;;1.73;0.98;;;;;;;20.63;35.45;102491.50;20830007;28;20041;-61
2022/12/13 06:49:03;;;;;;;1.15;0.80;;;;;;;20.63;35.34;102492.34;20831430;28;20033;-60
2022/12/13 06:59:07;;;;;;;0.80;0.80;;;;;;;20.60;35.23;102501.16;20826146;28;20045;-61
2022/12/13 07:09:09;;;;;;;1.30;1.20;;;;;;;20.60;35.18;102511.44;20810438;28;20045;-61
2022/12/13 07:19:10;;;;;;;1.20;1.10;;;;;;;20.61;35.21;102511.19;20816288;28;20091;-59
2022/12/13 07:29:12;;;;;;;1.02;0.93;;;;;;;20.63;34.91;102510.97;20796874;28;20092;-60
2022/12/13 07:39:13;;;;;;;1.30;1.05;;;;;;;20.65;35.10;102511.56;20797064;28;20031;-59
2022/12/13 07:49:14;;;;;;;1.50;1.10;;;;;;;20.67;34.81;102514.97;20826225;28;20068;-62
2022/12/13 07:59:16;;;;;;;0.90;0.90;;;;;;;20.68;34.92;102517.50;20825787;28;20481;-59
2022/12/13 08:09:17;;;;;;;2.20;0.73;;;;;;;20.71;34.70;102513.38;20813819;28;20557;-59
2022/12/13 08:19:19;;;;;;;0.95;0.90;;;;;;;20.72;34.63;102523.44;20782537;28;20143;-61
2022/12/13 08:29:20;;;;;;;1.13;0.80;;;;;;;20.74;34.86;102527.63;20776703;28;20037;-60
2022/12/13 08:39:24;;;;;;;1.00;0.90;;;;;;;20.74;34.54;102536.00;20789008;28;20045;-61
2022/12/13 08:49:28;;;;;;;1.85;1.13;;;;;;;20.75;34.62;102539.63;20779583;28;20046;-60
2022/12/13 08:59:29;;;;;;;0.70;0.65;;;;;;;20.73;34.80;102534.31;20812329;28;20443;-61
2022/12/13 09:09:31;;;;;;;1.70;1.10;;;;;;;20.75;34.96;102522.91;20773604;28;20041;-60
2022/12/13 09:19:32;;;;;;;1.27;1.02;;;;;;;20.75;34.54;102534.06;20835548;28;20050;-60
2022/12/13 09:29:33;;;;;;;1.00;0.93;;;;;;;20.74;34.59;102527.63;20832947;28;20045;-60
2022/12/13 09:39:35;;;;;;;0.82;0.70;;;;;;;20.74;34.56;102527.63;20831572;28;20037;-61
2022/12/13 09:49:43;;;;;;;0.88;0.82;;;;;;;20.73;34.79;102525.13;20830628;28;20052;-61
2022/12/13 09:59:46;;;;;;;1.53;0.87;;;;;;;20.74;34.45;102527.63;20831980;28;20049;-60
2022/12/13 10:10:00;;;;;;;0.88;0.70;;;;;;;20.71;34.58;102536.50;20828446;28;20095;-60
2022/12/13 10:20:02;;;;;;;1.17;0.88;;;;;;;20.69;34.46;102535.03;20820629;28;20038;-59
2022/12/13 10:30:10;;;;;;;0.70;0.70;;;;;;;20.67;34.34;102554.75;20782217;28;20389;-60
2022/12/13 10:40:36;;;;;;;1.00;0.90;;;;;;;20.61;34.29;102560.41;20814402;28;20100;-60
2022/12/13 10:50:37;;;;;;;0.77;0.75;;;;;;;20.62;34.09;102562.09;20798517;28;20042;-61
2022/12/13 11:00:44;;;;;;;0.57;0.57;;;;;;;20.52;34.03;102546.00;20826911;28;20053;-61
2022/12/13 11:10:46;;;;;;;0.85;0.60;;;;;;;20.56;33.96;102563.91;20828558;28;20037;-60
2022/12/13 11:21:06;;;;;;;0.75;0.60;;;;;;;20.14;33.99;102499.97;20825430;28;20092;-62
2022/12/13 11:31:17;;;;;;;1.17;0.90;;;;;;;20.49;34.12;102554.84;20817661;28;20041;-60
2022/12/13 11:41:43;;;;;;;1.10;0.80;;;;;;;20.43;34.10;102541.84;20832850;28;20075;-61
2022/12/13 11:51:56;;;;;;;1.35;0.85;;;;;;;20.33;34.57;102536.03;20808517;28;20079;-60
2022/12/13 12:02:34;;;;;;;1.02;0.60;;;;;;;20.36;34.65;102569.78;20823281;28;20044;-61
2022/12/13 12:12:41;;;;;;;1.00;0.90;;;;;;;20.45;34.16;102567.50;20798191;28;20492;-60
2022/12/13 12:23:01;;;;;;;0.82;0.75;;;;;;;20.37;33.80;102565.91;20823425;28;20057;-61
2022/12/13 12:33:20;;;;;;;1.80;0.70;;;;;;;20.46;33.79;102570.03;20834940;28;20041;-61
2022/12/13 12:43:31;;;;;;;1.00;0.90;;;;;;;20.52;33.84;102573.81;20814955;28;20451;-61
2022/12/13 12:53:52;;;;;;;0.93;0.70;;;;;;;20.49;34.12;102582.66;20810804;28;20485;-60
2022/12/13 13:04:00;;;;;;;0.80;0.60;;;;;;;20.50;33.75;102578.78;20815570;28;20144;-60
2022/12/13 13:14:37;;;;;;;0.57;0.50;;;;;;;20.50;34.20;102595.47;20816449;28;20037;-61
2022/12/13 13:24:38;;;;;;;1.20;0.85;;;;;;;20.53;33.65;102587.50;20795516;28;20053;-61
2022/12/13 13:34:45;;;;;;;3.00;1.00;;;;;;;20.55;33.63;102581.69;20790903;28;20079;-60
2022/12/13 13:44:53;;;;;;;7.43;1.20;;;;;;;20.58;33.80;102588.72;20832983;28;20041;-60
2022/12/13 13:55:19;;;;;;;5.03;1.13;;;;;;;20.58;33.91;102595.13;20794900;28;20077;-60
2022/12/13 14:05:58;;;;;;;12.32;1.58;;;;;;;20.55;34.12;102593.66;20817289;28;20033;-60
2022/12/13 14:16:20;;;;;;;3.00;1.42;;;;;;;20.62;34.30;102589.91;20810590;28;20095;-60
2022/12/13 14:26:40;;;;;;;5.80;1.35;;;;;;;20.68;34.46;102594.53;20805787;28;20064;-60
2022/12/13 14:36:42;;;;;;;3.28;0.85;;;;;;;20.78;34.46;102606.75;20811582;28;20049;-60
2022/12/13 14:47:10;;;;;;;4.10;0.90;;;;;;;20.75;34.07;102618.34;20798211;28;20515;-59
2022/12/13 14:57:22;;;;;;;13.20;1.92;;;;;;;20.84;33.82;102612.44;20820887;28;20451;-60
2022/12/13 15:07:34;;;;;;;3.10;0.93;;;;;;;20.89;33.68;102607.00;20831454;28;20045;-60
2022/12/13 15:17:41;;;;;;;2.35;0.80;;;;;;;20.94;33.96;102605.22;20793983;28;20388;-59
2022/12/13 15:27:43;;;;;;;3.85;0.80;;;;;;;20.98;33.75;102605.56;20810824;28;20373;-60
2022/12/13 15:37:45;;;;;;;3.35;0.90;;;;;;;21.01;33.81;102599.53;20785750;28;20443;-61
2022/12/13 15:47:48;;;;;;;6.75;1.13;;;;;;;21.03;33.65;102581.50;20806202;28;20068;-60
2022/12/13 15:57:53;;;;;;;7.05;1.25;;;;;;;21.07;33.76;102584.63;20817032;28;20042;-60
2022/12/13 16:07:57;;;;;;;8.55;1.75;;;;;;;21.10;32.17;102561.03;20821370;28;20187;-61
2022/12/13 16:18:09;;;;;;;11.05;1.38;;;;;;;21.08;32.31;102544.59;20841880;28;20435;-62
2022/12/13 16:28:17;;;;;;;3.17;1.20;;;;;;;20.96;32.35;102510.34;20839980;28;20046;-62
2022/12/13 16:38:18;;;;;;;2.93;1.30;;;;;;;21.10;33.15;102519.28;20841060;28;20057;-62
2022/12/13 16:48:23;;;;;;;6.07;1.23;;;;;;;21.16;33.83;102521.09;20839648;28;20057;-61
2022/12/13 16:58:25;;;;;;;4.20;1.10;;;;;;;21.18;33.54;102488.28;20838436;28;20037;-61
2022/12/13 17:08:26;;;;;;;3.45;0.98;;;;;;;21.18;33.71;102479.94;20837920;28;20037;-61
2022/12/13 17:18:28;;;;;;;3.10;0.80;;;;;;;21.25;33.58;102473.13;20836091;28;20046;-61
2022/12/13 17:28:32;;;;;;;1.95;0.98;;;;;;;21.28;33.20;102467.06;20836697;28;20037;-62
2022/12/13 17:38:34;;;;;;;2.28;0.95;;;;;;;21.11;33.23;102427.16;20836119;28;20052;-62
2022/12/13 17:48:36;;;;;;;1.20;0.90;;;;;;;21.29;33.32;102440.91;20835017;28;20104;-62
2022/12/13 17:58:38;;;;;;;1.45;0.88;;;;;;;21.31;33.35;102435.16;20834093;28;20045;-62
2022/12/13 18:09:02;;;;;;;1.70;0.80;;;;;;;21.31;33.35;102402.59;20833436;28;20489;-62
2022/12/13 18:19:13;;;;;;;2.78;0.90;;;;;;;21.31;33.41;102388.66;20832466;28;20041;-62
2022/12/13 18:29:14;;;;;;;1.90;0.88;;;;;;;21.29;32.98;102374.09;20830545;28;20068;-62
2022/12/13 18:39:16;;;;;;;1.45;0.80;;;;;;;21.34;33.31;102386.47;20831183;28;20060;-62
2022/12/13 18:49:17;;;;;;;1.35;0.95;;;;;;;21.34;33.25;102367.81;20830083;28;20049;-60
2022/12/13 18:59:21;;;;;;;0.63;0.55;;;;;;;21.35;33.03;102363.09;20829367;28;20041;-61
2022/12/13 19:09:22;;;;;;;1.00;0.90;;;;;;;21.33;32.79;102352.19;20791445;28;20037;-60
2022/12/13 19:19:24;;;;;;;1.30;0.88;;;;;;;21.34;32.78;102347.47;20826022;28;20123;-60
2022/12/13 19:29:25;;;;;;;2.55;0.80;;;;;;;21.32;32.92;102361.66;20826716;28;20049;-61
2022/12/13 19:39:26;;;;;;;3.05;1.00;;;;;;;21.31;33.29;102360.81;20826307;28;20065;-61
2022/12/13 19:49:28;;;;;;;5.15;1.70;;;;;;;21.29;33.30;102357.38;20792308;28;20051;-61
2022/12/13 19:59:32;;;;;;;7.25;1.63;;;;;;;21.30;33.94;102350.75;20812919;28;20444;-61
2022/12/13 20:09:33;;;;;;;8.50;1.52;;;;;;;21.29;34.34;102350.97;20823692;28;20117;-61
2022/12/13 20:19:35;;;;;;;8.15;1.77;;;;;;;21.28;35.08;102350.13;20805164;28;20446;-62
2022/12/13 20:29:36;;;;;;;6.10;1.13;;;;;;;21.27;35.22;102359.59;20820952;28;20041;-61
2022/12/13 20:39:41;;;;;;;6.30;1.35;;;;;;;21.26;35.43;102357.91;20817818;28;20053;-61
2022/12/13 20:49:43;;;;;;;4.60;1.27;;;;;;;21.26;35.42;102352.34;20799398;28;20049;-62
2022/12/13 20:59:44;;;;;;;4.60;1.30;;;;;;;21.24;36.50;102357.28;20820384;28;20389;-62
2022/12/13 21:09:45;;;;;;;4.63;1.02;;;;;;;21.23;36.35;102363.97;20831553;28;20033;-62
2022/12/13 21:19:47;;;;;;;7.30;1.30;;;;;;;21.25;36.96;102369.28;20787178;28;20045;-61
2022/12/13 21:29:48;;;;;;;6.47;1.10;;;;;;;21.25;36.48;102378.47;20828907;28;20068;-61
2022/12/13 21:39:50;;;;;;;4.82;1.00;;;;;;;21.15;36.24;102375.47;20835725;28;20384;-62
2022/12/13 21:49:54;;;;;;;4.90;1.00;;;;;;;21.20;35.30;102381.16;20834171;28;20198;-62
2022/12/13 21:59:55;;;;;;;1.42;0.80;;;;;;;21.20;34.55;102380.31;20832524;28;20049;-62
2022/12/13 22:09:58;;;;;;;1.55;0.95;;;;;;;21.20;34.20;102381.16;20833201;28;20045;-62
2022/12/13 22:20:04;;;;;;;3.75;0.70;;;;;;;21.18;34.07;102377.78;20832085;28;20045;-62
2022/12/13 22:30:07;;;;;;;1.17;0.82;;;;;;;21.05;34.22;102362.22;20830826;28;20388;-61
2022/12/13 22:40:19;;;;;;;0.77;0.47;;;;;;;21.16;34.27;102368.81;20830055;28;20042;-61
2022/12/13 22:50:23;;;;;;;1.33;0.73;;;;;;;21.04;33.98;102354.13;20826346;28;20052;-61
2022/12/13 23:00:27;;;;;;;2.15;1.00;;;;;;;21.16;33.70;102379.94;20826537;28;20038;-61
2022/12/13 23:20:52;;;;;;;1.13;0.70;;;;;;;21.15;33.66;102394.13;20818130;28;20052;-61
2022/12/13 23:30:53;;;;;;;2.67;0.80;;;;;;;21.13;33.89;102391.59;20827155;28;20451;-62
2022/12/13 23:41:12;;;;;;;0.93;0.70;;;;;;;21.08;34.23;102394.28;20826558;28;20041;-62
2022/12/13 23:51:18;;;;;;;1.80;1.00;;;;;;;21.12;33.92;102373.22;20826750;28;20076;-62
